Time;durP1;ratioP1;P1;durP2;ratioP2;P2;SDS_P1;SDS_P2;PMS_P1;PMS_P2;Temp;Humidity;BMP_temperature;BMP_pressure;BME280_temperature;BME280_humidity;BME280_pressure;Samples;Min_cycle;Max_cycle;Signal;HPM_P1;HPM_P2
2023/05/26 00:01:21;;;;;;;4.70;3.15;;;12.10;99.90;;;12.27;100.00;102058.97;5166709;28;20034;-80
2023/05/26 00:03:53;;;;;;;5.75;3.65;;;12.10;99.90;;;12.23;100.00;102060.53;5150795;28;20077;-79
2023/05/26 00:06:25;;;;;;;5.10;2.95;;;12.10;99.90;;;12.19;100.00;102058.63;5167143;28;20145;-80
2023/05/26 00:08:59;;;;;;;5.28;3.30;;;12.00;99.90;;;12.16;100.00;102057.56;5168266;28;20434;-79
2023/05/26 00:11:31;;;;;;;6.80;3.20;;;12.00;99.90;;;12.15;100.00;102061.00;5167179;28;20050;-79
2023/05/26 00:14:03;;;;;;;5.97;3.03;;;12.00;99.90;;;12.12;100.00;102061.72;5149602;28;20050;-79
2023/05/26 00:16:35;;;;;;;4.32;2.97;;;12.00;99.90;;;12.07;100.00;102067.59;5149285;28;20058;-80
2023/05/26 00:19:08;;;;;;;7.82;3.42;;;11.90;99.90;;;12.02;100.00;102069.97;5149923;28;20046;-77
2023/05/26 00:21:40;;;;;;;5.93;3.55;;;11.90;99.90;;;11.98;100.00;102067.13;5148344;28;20049;-79
2023/05/26 00:24:13;;;;;;;5.45;2.95;;;11.80;99.90;;;11.96;100.00;102077.50;5166848;28;20563;-79
2023/05/26 00:26:46;;;;;;;5.93;3.00;;;11.80;99.90;;;11.93;100.00;102078.25;5153418;28;20054;-81
2023/05/26 00:29:18;;;;;;;6.07;3.20;;;11.80;99.90;;;11.90;100.00;102079.81;5161841;28;20077;-79
2023/05/26 00:31:50;;;;;;;5.22;3.05;;;11.70;99.90;;;11.84;100.00;102071.66;5151293;28;20050;-79
2023/05/26 00:34:25;;;;;;;5.20;2.65;;;11.70;99.90;;;11.80;100.00;102070.59;5153069;28;20050;-78
2023/05/26 00:36:57;;;;;;;5.10;3.05;;;11.70;99.90;;;11.76;100.00;102070.34;5169370;28;20074;-81
2023/05/26 00:39:31;;;;;;;5.40;2.83;;;11.60;99.90;;;11.74;100.00;102064.16;5151639;28;20046;-80
2023/05/26 00:42:04;;;;;;;6.22;3.33;;;11.60;99.90;;;11.71;100.00;102066.63;5170037;28;20050;-80
2023/05/26 00:44:36;;;;;;;5.40;3.03;;;11.60;99.90;;;11.68;100.00;102060.44;5171453;28;20062;-80
2023/05/26 00:47:08;;;;;;;6.97;3.15;;;11.60;99.90;;;11.65;100.00;102057.63;5170716;28;20109;-81
2023/05/26 00:49:40;;;;;;;8.73;3.35;;;11.50;99.90;;;11.63;100.00;102059.28;5168704;28;20045;-80
2023/05/26 00:52:13;;;;;;;6.95;3.60;;;11.50;99.90;;;11.61;100.00;102071.38;5151856;28;20061;-80
2023/05/26 00:54:46;;;;;;;4.95;3.35;;;11.50;99.90;;;11.58;100.00;102066.00;5159927;28;20065;-79
2023/05/26 00:57:19;;;;;;;5.30;2.97;;;11.40;99.90;;;11.55;100.00;102072.78;5164597;28;20039;-79
2023/05/26 00:59:51;;;;;;;5.13;3.00;;;11.40;99.90;;;11.53;100.00;102067.47;5165315;28;20038;-78
2023/05/26 01:02:25;;;;;;;4.53;2.83;;;11.40;99.90;;;11.49;100.00;102070.75;5156440;28;20481;-80
2023/05/26 01:04:57;;;;;;;6.10;3.13;;;11.40;99.90;;;11.47;100.00;102067.16;5151952;28;20442;-79
2023/05/26 01:07:30;;;;;;;6.90;3.55;;;11.40;99.90;;;11.46;100.00;102061.84;5150817;28;20042;-80
2023/05/26 01:10:05;;;;;;;5.22;3.03;;;11.30;99.90;;;11.45;100.00;102065.28;5151130;28;20456;-80
2023/05/26 01:12:43;;;;;;;6.38;3.10;;;11.30;99.90;;;11.43;100.00;102067.81;5150833;28;20953;-80
2023/05/26 01:15:23;;;;;;;5.00;2.90;;;11.30;99.90;;;11.38;100.00;102066.69;5152682;28;20046;-79
2023/05/26 01:18:04;;;;;;;5.88;3.22;;;11.30;99.90;;;11.34;100.00;102060.41;5156496;28;20058;-79
2023/05/26 01:20:40;;;;;;;5.50;2.95;;;11.20;99.90;;;11.34;100.00;102064.72;5155373;28;20046;-79
2023/05/26 01:24:00;;;;;;;7.45;3.60;;;11.20;99.90;;;11.32;100.00;102064.66;5158088;28;20047;-80
2023/05/26 01:27:03;;;;;;;6.10;3.15;;;11.20;99.90;;;11.31;100.00;102064.59;5175999;28;20057;-80
2023/05/26 01:29:37;;;;;;;6.20;3.40;;;11.20;99.90;;;11.29;100.00;102066.22;5154679;28;20081;-79
2023/05/26 01:32:16;;;;;;;6.03;3.40;;;11.20;99.90;;;11.29;100.00;102071.44;5153283;28;20038;-79
2023/05/26 01:34:48;;;;;;;6.13;3.30;;;11.20;99.90;;;11.29;100.00;102067.13;5150429;28;20057;-79
2023/05/26 01:37:22;;;;;;;7.60;3.67;;;11.20;99.90;;;11.31;100.00;102064.59;5149026;28;20484;-79
2023/05/26 01:39:54;;;;;;;5.55;3.05;;;11.20;99.90;;;11.34;100.00;102067.34;5153687;28;20101;-79
2023/05/26 01:42:30;;;;;;;6.72;3.20;;;11.20;99.90;;;11.35;100.00;102066.53;5153458;28;20065;-80
2023/05/26 01:45:12;;;;;;;6.63;3.30;;;11.20;99.90;;;11.37;100.00;102070.13;5158188;28;20166;-81
2023/05/26 01:47:53;;;;;;;6.82;3.20;;;11.30;99.90;;;11.40;100.00;102080.72;5157673;28;20045;-80
2023/05/26 01:50:33;;;;;;;8.02;3.38;;;11.20;99.90;;;11.40;100.00;102076.38;5156682;28;20130;-80
2023/05/26 01:53:08;;;;;;;8.98;3.97;;;11.30;99.90;;;11.43;100.00;102080.88;5160652;28;20113;-79
2023/05/26 01:55:42;;;;;;;10.43;3.90;;;11.30;99.90;;;11.46;100.00;102087.97;5156443;28;20519;-80
2023/05/26 01:58:16;;;;;;;10.57;3.60;;;11.40;99.90;;;11.49;100.00;102085.53;5156089;28;20046;-79
2023/05/26 02:00:50;;;;;;;7.32;3.58;;;11.30;99.90;;;11.53;100.00;102087.47;5173999;28;20066;-81
2023/05/26 02:03:22;;;;;;;7.53;3.03;;;11.40;99.90;;;11.57;100.00;102095.53;5161690;28;20050;-78
2023/05/26 02:05:54;;;;;;;5.93;2.85;;;11.50;99.90;;;11.57;100.00;102098.16;5156338;28;20042;-79
2023/05/26 02:08:26;;;;;;;8.90;3.00;;;11.50;99.90;;;11.63;100.00;102097.56;5174231;28;20073;-79
2023/05/26 02:10:58;;;;;;;7.50;3.17;;;11.50;99.90;;;11.65;100.00;102099.44;5173224;28;20039;-81
2023/05/26 02:13:30;;;;;;;9.85;2.58;;;11.50;99.90;;;11.68;100.00;102098.72;5165404;28;20038;-80
2023/05/26 02:16:04;;;;;;;12.30;2.70;;;11.60;99.90;;;11.70;100.00;102094.44;5173429;28;20048;-80
2023/05/26 02:18:36;;;;;;;7.90;2.42;;;11.60;99.90;;;11.71;100.00;102096.25;5165989;28;20046;-79
2023/05/26 02:21:08;;;;;;;9.40;2.90;;;11.60;99.90;;;11.72;100.00;102089.28;5169256;28;20070;-79
2023/05/26 02:23:40;;;;;;;8.07;2.83;;;11.60;99.90;;;11.71;100.00;102088.41;5178056;28;20061;-80
2023/05/26 02:26:13;;;;;;;10.32;2.67;;;11.60;99.90;;;11.67;100.00;102092.59;5156512;28;20511;-80
2023/05/26 02:28:45;;;;;;;10.60;3.15;;;11.60;99.90;;;11.65;100.00;102081.16;5173580;28;20046;-79
2023/05/26 02:31:20;;;;;;;9.27;2.63;;;11.60;99.90;;;11.65;100.00;102088.09;5168179;28;20051;-80
2023/05/26 02:33:52;;;;;;;5.57;2.50;;;11.60;99.90;;;11.65;100.00;102083.75;5164970;28;20038;-79
2023/05/26 02:36:25;;;;;;;7.20;2.33;;;11.60;99.90;;;11.63;100.00;102079.28;5173992;28;20449;-79
2023/05/26 02:38:58;;;;;;;6.95;1.90;;;11.50;99.90;;;11.62;100.00;102078.41;5167588;28;20071;-80
2023/05/26 02:41:30;;;;;;;7.60;2.60;;;11.50;99.90;;;11.59;100.00;102075.63;5168412;28;20041;-81
2023/05/26 02:44:02;;;;;;;5.57;2.35;;;11.50;99.90;;;11.57;100.00;102085.09;5173428;28;20458;-80
2023/05/26 02:46:36;;;;;;;7.60;2.38;;;11.50;99.90;;;11.53;100.00;102077.91;5163129;28;20266;-80
2023/05/26 02:49:08;;;;;;;8.57;2.20;;;11.40;99.90;;;11.50;100.00;102077.78;5166445;28;20046;-79
2023/05/26 02:51:40;;;;;;;7.13;2.92;;;11.40;99.90;;;11.49;100.00;102080.31;5190040;22;20149;-80
2023/05/26 02:54:13;;;;;;;8.07;2.88;;;11.40;99.90;;;11.46;100.00;102082.75;5157989;28;20055;-81
2023/05/26 02:56:45;;;;;;;6.32;2.08;;;11.40;99.90;;;11.44;100.00;102076.56;5160350;28;20038;-80
2023/05/26 02:59:17;;;;;;;10.82;2.30;;;11.30;99.90;;;11.41;100.00;102079.91;5152306;28;20054;-81
2023/05/26 03:01:50;;;;;;;5.93;2.20;;;11.30;99.90;;;11.37;100.00;102077.94;5147095;28;20047;-81
2023/05/26 03:04:22;;;;;;;6.95;2.40;;;11.30;99.90;;;11.36;100.00;102084.00;5156082;28;20061;-82
2023/05/26 03:06:54;;;;;;;7.47;2.78;;;11.30;99.90;;;11.33;100.00;102083.81;5148647;28;20061;-84
2023/05/26 03:09:31;;;;;;;5.97;2.35;;;11.20;99.90;;;11.28;100.00;102081.00;5161912;28;20447;-81
2023/05/26 03:12:03;;;;;;;5.45;2.35;;;11.20;99.90;;;11.25;100.00;102079.91;5151880;28;20133;-81
2023/05/26 03:14:36;;;;;;;7.28;2.30;;;11.10;99.90;;;11.21;100.00;102080.56;5164597;28;20130;-79
2023/05/26 03:17:11;;;;;;;4.88;1.83;;;11.10;99.90;;;11.16;100.00;102084.69;5157648;28;20054;-81
2023/05/26 03:19:45;;;;;;;5.82;2.10;;;11.10;99.90;;;11.12;100.00;102078.38;5161006;28;20515;-81
2023/05/26 03:22:17;;;;;;;6.47;2.00;;;11.00;99.90;;;11.09;100.00;102083.44;5188001;28;20050;-81
2023/05/26 03:24:49;;;;;;;7.90;2.22;;;11.00;99.90;;;11.06;100.00;102089.38;5167763;28;20061;-81
2023/05/26 03:27:24;;;;;;;6.90;2.30;;;11.00;99.90;;;11.01;100.00;102079.50;5187804;28;20515;-80
2023/05/26 03:29:57;;;;;;;6.90;2.20;;;10.90;99.90;;;10.98;100.00;102090.69;5156537;28;20046;-81
2023/05/26 03:32:31;;;;;;;6.60;2.35;;;10.90;99.90;;;10.93;100.00;102084.31;5137985;28;20192;-82
2023/05/26 03:35:04;;;;;;;5.85;2.22;;;10.90;99.90;;;10.89;100.00;102085.00;5151434;28;20042;-81
2023/05/26 03:37:36;;;;;;;4.28;2.35;;;10.80;99.90;;;10.85;100.00;102085.63;5185411;28;20054;-81
2023/05/26 03:40:10;;;;;;;5.55;2.25;;;10.80;99.90;;;10.80;100.00;102087.97;5157111;28;20492;-82
2023/05/26 03:42:43;;;;;;;9.15;2.42;;;10.80;99.90;;;10.74;100.00;102085.03;5154395;28;20058;-79
2023/05/26 03:45:16;;;;;;;6.45;2.30;;;10.70;99.90;;;10.72;100.00;102080.56;5162332;28;20060;-81
2023/05/26 03:47:49;;;;;;;8.40;2.20;;;10.60;99.90;;;10.67;100.00;102085.53;5154489;28;20049;-82
2023/05/26 03:50:23;;;;;;;6.45;2.35;;;10.60;99.90;;;10.66;100.00;102090.66;5170588;28;20069;-81
2023/05/26 03:52:57;;;;;;;5.32;2.05;;;10.60;99.90;;;10.62;100.00;102091.28;5142598;28;20043;-81
2023/05/26 03:55:33;;;;;;;7.70;2.13;;;10.50;99.90;;;10.59;100.00;102092.03;5151259;28;20054;-80
2023/05/26 03:58:05;;;;;;;;;;;10.50;99.90;;;10.56;100.00;102092.78;5151572;28;20050;-79
2023/05/26 04:00:38;;;;;;;6.68;2.10;;;10.50;99.90;;;10.55;100.00;102097.88;5144135;28;20012;-79
2023/05/26 04:03:11;;;;;;;5.65;1.90;;;10.50;99.90;;;10.51;100.00;102099.44;5151177;28;20050;-80
2023/05/26 04:05:43;;;;;;;6.22;2.05;;;10.50;99.90;;;10.50;100.00;102100.25;5143922;28;20065;-81
2023/05/26 04:08:15;;;;;;;6.72;2.55;;;10.40;99.90;;;10.50;100.00;102096.75;5149673;28;20054;-80
2023/05/26 04:10:49;;;;;;;6.07;2.35;;;10.40;99.90;;;10.51;100.00;102094.22;5158204;28;20042;-80
2023/05/26 04:13:21;;;;;;;8.00;2.25;;;10.50;99.90;;;10.54;100.00;102096.97;5167401;28;20569;-82
2023/05/26 04:15:54;;;;;;;7.97;2.38;;;10.50;99.90;;;10.56;100.00;102097.06;5144357;28;20429;-80
2023/05/26 04:18:27;;;;;;;6.15;2.00;;;10.50;99.90;;;10.62;100.00;102104.34;5143759;28;20042;-82
2023/05/26 04:20:59;;;;;;;6.85;2.40;;;10.50;99.90;;;10.64;100.00;102095.81;5158514;28;20045;-80
2023/05/26 04:23:33;;;;;;;5.43;2.22;;;10.50;99.90;;;10.70;100.00;102100.47;5157829;28;20053;-79
2023/05/26 04:26:06;;;;;;;5.22;2.42;;;10.60;99.90;;;10.76;100.00;102103.41;5174503;28;20074;-80
2023/05/26 04:28:56;;;;;;;6.65;2.33;;;10.60;99.90;;;10.80;100.00;102101.03;5147595;28;20067;-78
2023/05/26 04:31:42;;;;;;;6.47;2.20;;;10.70;99.90;;;10.84;100.00;102109.94;5157315;28;20053;-80
2023/05/26 04:34:23;;;;;;;6.82;2.38;;;10.80;99.90;;;10.89;100.00;102111.09;5150815;28;20119;-81
2023/05/26 04:37:04;;;;;;;8.90;2.70;;;10.80;99.90;;;10.93;100.00;102107.81;5160542;28;20038;-80
2023/05/26 04:39:36;;;;;;;7.60;2.20;;;10.80;99.90;;;10.97;100.00;102112.38;5185687;28;20127;-82
2023/05/26 04:42:09;;;;;;;9.10;2.00;;;10.90;99.90;;;11.03;100.00;102109.22;5170390;28;20112;-80
2023/05/26 04:44:43;;;;;;;10.70;2.17;;;10.90;99.90;;;11.07;100.00;102113.75;5162122;28;20141;-81
2023/05/26 04:47:16;;;;;;;5.60;1.85;;;11.00;99.90;;;11.15;100.00;102115.09;5155473;28;20050;-80
2023/05/26 04:49:50;;;;;;;8.73;2.33;;;11.00;99.90;;;11.25;100.00;102117.34;5140883;28;20497;-81
2023/05/26 04:52:22;;;;;;;9.55;2.47;;;11.10;99.90;;;11.40;100.00;102117.25;5166065;28;20519;-80
2023/05/26 04:54:54;;;;;;;8.57;2.72;;;11.20;99.90;;;11.52;100.00;102115.28;5150622;28;20129;-80
2023/05/26 04:57:27;;;;;;;10.65;2.83;;;11.40;99.90;;;11.65;100.00;102116.81;5157876;28;20043;-84
2023/05/26 05:00:01;;;;;;;9.65;2.40;;;11.50;99.90;;;11.75;100.00;102126.03;5167605;28;20043;-81
2023/05/26 05:02:35;;;;;;;8.85;2.53;;;11.60;99.90;;;11.90;100.00;102126.84;5140985;28;20444;-80
2023/05/26 05:05:12;;;;;;;7.57;2.75;;;11.70;99.90;;;12.03;100.00;102129.25;5138730;28;20070;-81
2023/05/26 05:07:49;;;;;;;14.55;2.85;;;11.80;99.90;;;12.17;100.00;102124.72;5156540;28;20054;-79
2023/05/26 05:10:21;;;;;;;11.23;3.22;;;11.90;99.90;;;12.32;100.00;102132.41;5150379;28;20053;-81
2023/05/26 05:12:54;;;;;;;14.05;2.92;;;12.10;99.90;;;12.52;100.00;102136.91;5157844;28;20050;-83
2023/05/26 05:15:27;;;;;;;10.73;2.22;;;12.20;99.90;;;12.67;100.00;102135.00;5157691;28;20506;-81
2023/05/26 05:18:02;;;;;;;10.93;2.53;;;12.40;99.90;;;12.80;100.00;102138.22;5145965;28;20570;-80
2023/05/26 05:20:35;;;;;;;14.23;2.80;;;12.50;99.90;;;12.93;100.00;102140.56;5154227;28;20078;-80
2023/05/26 05:23:07;;;;;;;15.60;2.92;;;12.60;99.90;;;13.09;100.00;102148.28;5154832;28;20042;-80
2023/05/26 05:25:39;;;;;;;13.07;3.00;;;12.80;99.90;;;13.20;100.00;102149.72;5162213;28;20038;-79
2023/05/26 05:28:11;;;;;;;12.25;2.70;;;12.90;99.90;;;13.23;100.00;102157.69;5165170;28;20137;-81
2023/05/26 05:30:49;;;;;;;13.05;3.20;;;13.00;99.90;;;13.39;100.00;102158.41;5161075;28;21376;-80
2023/05/26 05:33:21;;;;;;;14.15;3.63;;;13.10;99.90;;;13.50;100.00;102165.03;5162196;28;20038;-81
2023/05/26 05:35:55;;;;;;;12.18;2.90;;;13.20;99.90;;;13.62;100.00;102162.94;5143311;28;20043;-81
2023/05/26 05:38:27;;;;;;;14.40;3.05;;;13.30;99.90;;;13.81;100.00;102169.88;5143259;28;20030;-80
2023/05/26 05:40:59;;;;;;;13.90;3.20;;;13.50;99.90;;;13.98;100.00;102171.50;5155361;28;20043;-82
2023/05/26 05:43:32;;;;;;;12.45;2.90;;;13.60;99.90;;;14.20;99.83;102167.16;5147414;28;20419;-82
2023/05/26 05:46:05;;;;;;;11.48;3.05;;;13.80;99.90;;;14.41;98.18;102175.94;5144581;28;20595;-80
2023/05/26 05:48:45;;;;;;;12.25;3.22;;;14.00;99.90;;;14.54;97.23;102177.34;5167422;28;20050;-82
2023/05/26 05:51:32;;;;;;;11.48;3.67;;;14.10;99.90;;;14.63;96.56;102182.97;5150653;28;20042;-83
2023/05/26 05:54:05;;;;;;;13.90;3.90;;;14.20;99.90;;;14.73;96.38;102182.50;5147197;28;20100;-80
2023/05/26 05:56:37;;;;;;;15.43;2.92;;;14.30;99.90;;;14.89;96.38;102177.03;5172249;28;20053;-87
2023/05/26 05:59:11;;;;;;;11.85;3.10;;;14.50;99.90;;;15.03;94.75;102185.44;5162166;28;20038;-86
2023/05/26 06:01:43;;;;;;;11.32;3.17;;;14.60;99.90;;;15.13;92.79;102191.97;5159964;28;20038;-85
2023/05/26 06:04:16;;;;;;;9.27;2.85;;;14.70;99.90;;;15.13;91.77;102191.97;5166020;28;20038;-84
2023/05/26 06:06:50;;;;;;;14.23;3.60;;;14.70;99.90;;;15.14;92.62;102193.75;5180055;28;20038;-82
2023/05/26 06:09:23;;;;;;;14.27;3.45;;;14.70;99.90;;;15.22;91.80;102188.78;5169462;28;20080;-82
2023/05/26 06:11:55;;;;;;;17.98;3.85;;;14.80;99.90;;;15.44;91.32;102189.63;5162844;28;20044;-83
2023/05/26 06:14:27;;;;;;;11.18;2.85;;;15.00;99.90;;;15.60;90.23;102190.19;5160945;28;20042;-82
2023/05/26 06:16:59;;;;;;;10.85;3.65;;;15.10;99.90;;;15.82;89.42;102192.78;5142409;28;20094;-81
2023/05/26 06:19:32;;;;;;;14.35;3.75;;;15.30;99.90;;;15.82;89.07;102195.41;5135149;28;20055;-84
2023/05/26 06:22:06;;;;;;;11.57;3.35;;;15.40;99.90;;;15.76;90.16;102199.56;5166065;28;20137;-82
2023/05/26 06:24:38;;;;;;;14.57;3.38;;;15.40;99.90;;;15.70;90.33;102201.13;5157374;28;20046;-83
2023/05/26 06:27:11;;;;;;;13.75;3.53;;;15.40;99.90;;;15.78;90.13;102195.22;5146559;28;20455;-83
2023/05/26 06:29:44;;;;;;;12.48;3.58;;;15.40;99.90;;;16.02;88.46;102199.63;5147652;28;20038;-83
2023/05/26 06:32:17;;;;;;;13.32;3.88;;;15.50;99.90;;;16.26;88.74;102188.16;5160059;28;20045;-82
2023/05/26 06:34:49;;;;;;;13.32;3.45;;;15.70;99.90;;;16.59;87.98;102195.38;5154530;28;20054;-83
2023/05/26 06:37:24;;;;;;;13.23;3.60;;;16.00;99.90;;;16.72;86.97;102198.50;5160310;28;20066;-82
2023/05/26 06:39:56;;;;;;;14.10;3.47;;;16.10;99.90;;;16.72;86.61;102192.34;5159134;28;20058;-82
2023/05/26 06:42:33;;;;;;;11.95;4.55;;;16.20;99.90;;;16.69;86.27;102197.44;5149591;28;20129;-87
2023/05/26 06:45:06;;;;;;;13.88;3.83;;;16.20;99.90;;;16.79;86.96;102194.31;5157918;28;20041;-83
2023/05/26 06:47:42;;;;;;;11.50;3.47;;;16.30;99.90;;;17.01;86.25;102194.13;5155971;28;20042;-83
2023/05/26 06:50:21;;;;;;;12.45;3.50;;;16.50;99.90;;;17.27;85.36;102194.91;5160718;28;20034;-85
2023/05/26 06:52:55;;;;;;;13.45;3.72;;;16.60;99.90;;;17.43;84.70;102204.16;5178604;28;20754;-84
2023/05/26 06:55:28;;;;;;;;;;;16.80;99.90;;;17.58;83.71;102209.88;5153648;28;20038;-83
2023/05/26 06:58:00;;;;;;;11.15;3.58;;;17.00;99.80;;;17.80;83.40;102213.13;5185519;28;19928;-82
2023/05/26 07:00:32;;;;;;;15.68;4.03;;;17.10;99.60;;;17.93;82.26;102210.00;5168709;28;20084;-82
2023/05/26 07:03:18;;;;;;;12.20;3.65;;;17.30;99.20;;;18.05;82.68;102212.94;5145718;28;20130;-84
2023/05/26 07:05:55;;;;;;;10.85;3.40;;;17.40;99.20;;;18.19;81.16;102197.47;5168465;28;20050;-82
2023/05/26 07:08:29;;;;;;;14.45;3.70;;;17.50;98.50;;;18.18;80.47;102206.25;5158609;28;20138;-82
2023/05/26 07:11:13;;;;;;;9.25;3.25;;;17.50;98.00;;;18.29;81.17;102212.72;5128877;28;20086;-75
2023/05/26 07:13:46;;;;;;;7.63;2.92;;;17.60;98.30;;;18.56;81.36;102204.56;5128126;28;20047;-75
2023/05/26 07:16:19;;;;;;;15.23;3.28;;;17.90;98.40;;;18.93;80.07;102213.41;5144599;28;20082;-82
2023/05/26 07:18:51;;;;;;;11.00;3.58;;;18.20;97.90;;;19.20;78.86;102216.66;5159944;28;20058;-84
2023/05/26 07:21:25;;;;;;;14.50;3.95;;;18.50;97.20;;;19.18;77.19;102213.09;5152297;28;20429;-83
2023/05/26 07:23:58;;;;;;;16.45;4.28;;;18.50;96.20;;;19.25;77.80;102214.13;5153458;28;20043;-83
2023/05/26 07:26:30;;;;;;;15.63;4.03;;;18.60;96.40;;;19.18;78.08;102214.88;5170714;28;20564;-83
2023/05/26 07:29:04;;;;;;;11.30;3.22;;;18.50;96.10;;;19.25;77.56;102212.38;5149904;28;20129;-83
2023/05/26 07:31:36;;;;;;;11.52;3.47;;;18.60;96.00;;;19.27;77.25;102206.22;5157706;28;20093;-82
2023/05/26 07:34:10;;;;;;;12.07;3.78;;;18.60;95.80;;;19.32;76.73;102210.75;5153719;28;20049;-82
2023/05/26 07:36:42;;;;;;;11.82;4.40;;;18.60;95.50;;;19.52;77.68;102203.25;5185793;28;20076;-81
2023/05/26 07:39:16;;;;;;;9.98;3.35;;;18.70;95.80;;;19.76;77.43;102201.13;5153293;28;20464;-82
2023/05/26 07:41:48;;;;;;;14.00;3.85;;;18.90;95.90;;;19.95;76.14;102209.38;5161771;28;20038;-82
2023/05/26 07:44:20;;;;;;;14.77;4.00;;;19.10;95.30;;;20.12;75.04;102192.06;5184492;28;20096;-82
2023/05/26 07:46:52;;;;;;;13.20;3.67;;;19.30;94.60;;;20.29;75.57;102201.19;5172762;28;20054;-83
2023/05/26 07:49:25;;;;;;;12.23;3.70;;;19.40;94.70;;;20.43;74.59;102201.44;5167532;28;20046;-83
2023/05/26 07:51:57;;;;;;;13.23;4.43;;;19.60;94.30;;;20.30;73.80;102196.78;5161632;28;20133;-82
2023/05/26 07:54:30;;;;;;;17.73;4.18;;;19.50;93.50;;;20.29;74.33;102201.19;5170321;28;20039;-82
2023/05/26 07:57:02;;;;;;;12.18;3.85;;;19.50;93.70;;;20.46;74.61;102197.97;5188981;28;20049;-81
2023/05/26 07:59:34;;;;;;;11.38;3.42;;;19.60;93.90;;;20.45;73.92;102193.53;5181315;28;20045;-82
2023/05/26 08:02:06;;;;;;;11.52;3.40;;;19.50;93.40;;;20.71;74.94;102199.25;5164738;28;20503;-82
2023/05/26 08:04:39;;;;;;;14.73;3.95;;;19.70;94.20;;;21.07;73.37;102198.91;5181728;28;20046;-82
2023/05/26 08:07:11;;;;;;;12.68;4.10;;;19.90;93.60;;;21.44;72.21;102204.69;5170036;28;20047;-82
2023/05/26 08:09:44;;;;;;;13.52;3.88;;;20.10;93.00;;;21.61;70.94;102193.41;5169525;28;20042;-82
2023/05/26 08:12:16;;;;;;;11.30;3.85;;;20.30;92.30;;;21.83;70.58;102198.97;5152791;28;20046;-84
2023/05/26 08:14:49;;;;;;;13.05;3.55;;;20.40;92.00;;;22.29;70.05;102195.00;5162986;28;20120;-84
2023/05/26 08:17:21;;;;;;;14.20;4.28;;;20.70;92.00;;;22.81;67.29;102192.75;5169834;28;20063;-83
2023/05/26 08:19:53;;;;;;;14.15;3.42;;;20.90;90.90;;;23.04;67.63;102197.34;5134308;28;20055;-83
2023/05/26 08:22:25;;;;;;;12.38;3.20;;;21.10;91.00;;;23.82;67.18;102195.91;5152446;28;20064;-83
2023/05/26 08:24:58;;;;;;;8.30;2.83;;;21.50;91.20;;;24.75;64.80;102197.75;5158266;28;20070;-84
2023/05/26 08:27:30;;;;;;;11.68;2.85;;;22.00;90.50;;;25.59;62.07;102201.03;5132524;28;20085;-83
2023/05/26 08:30:03;;;;;;;9.60;3.03;;;22.50;88.00;;;26.31;60.51;102191.69;5165270;28;20038;-83
2023/05/26 08:32:35;;;;;;;10.30;3.25;;;22.90;86.00;;;27.15;58.03;102197.13;5164813;28;20092;-84
2023/05/26 08:35:08;;;;;;;11.77;3.42;;;23.40;83.30;;;27.85;55.99;102198.88;5168888;28;20096;-85
2023/05/26 08:37:40;;;;;;;14.00;3.50;;;24.00;80.10;;;28.72;53.98;102201.03;5169837;28;20034;-83
2023/05/26 08:40:14;;;;;;;13.65;3.20;;;24.70;76.80;;;29.51;52.68;102201.25;5189211;28;20061;-82
2023/05/26 08:42:50;;;;;;;10.02;3.30;;;25.50;74.30;;;30.02;51.68;102192.94;5188806;28;20037;-83
2023/05/26 08:45:22;;;;;;;9.63;3.05;;;26.10;71.90;;;30.42;50.22;102193.75;5154589;28;20523;-82
2023/05/26 08:47:58;;;;;;;11.63;3.60;;;26.50;69.50;;;30.92;49.22;102193.34;5167770;28;20088;-82
2023/05/26 08:50:31;;;;;;;11.20;3.25;;;27.10;68.20;;;31.22;48.64;102191.56;5143353;28;20085;-83
2023/05/26 08:53:05;;;;;;;12.13;4.00;;;27.40;66.60;;;31.32;48.24;102188.59;5147420;28;20064;-82
2023/05/26 08:55:39;;;;;;;10.85;3.22;;;27.60;64.80;;;31.56;47.51;102181.56;5166380;28;20051;-83
2023/05/26 08:58:12;;;;;;;10.88;3.03;;;27.90;63.40;;;31.56;47.10;102181.56;5158268;28;20038;-83
2023/05/26 09:00:46;;;;;;;10.82;2.97;;;28.00;62.50;;;31.43;48.04;102182.88;5159895;28;20065;-81
2023/05/26 09:03:18;;;;;;;12.75;3.58;;;27.90;63.20;;;31.52;47.44;102185.28;5157998;28;20042;-81
2023/05/26 09:05:50;;;;;;;16.23;4.18;;;28.00;62.50;;;31.69;46.93;102182.06;5153441;28;20051;-82
2023/05/26 09:08:23;;;;;;;11.38;3.50;;;28.20;61.70;;;31.88;46.76;102188.66;5156407;28;20058;-81
2023/05/26 09:10:57;;;;;;;14.15;3.80;;;28.30;61.40;;;31.91;46.67;102182.28;5165662;28;20698;-81
2023/05/26 09:13:32;;;;;;;14.15;3.90;;;28.40;61.10;;;31.65;46.47;102190.31;5169829;28;20044;-83
2023/05/26 09:16:04;;;;;;;10.38;3.38;;;28.30;60.20;;;31.25;47.13;102191.50;5178802;28;20042;-83
2023/05/26 09:18:42;;;;;;;11.48;3.15;;;28.00;60.40;;;30.84;48.29;102190.84;5163013;28;20041;-83
2023/05/26 09:21:14;;;;;;;8.95;3.33;;;27.80;61.40;;;30.28;49.18;102198.59;5179324;23;20042;-79
2023/05/26 09:23:48;;;;;;;11.45;3.30;;;27.60;61.80;;;29.77;49.63;102203.41;5190969;28;20523;-81
2023/05/26 09:26:28;;;;;;;9.43;3.00;;;27.40;61.80;;;29.34;50.50;102189.09;5168126;28;20101;-83
2023/05/26 09:29:01;;;;;;;10.82;2.70;;;27.20;62.10;;;28.73;51.31;102192.97;5188912;28;20053;-81
2023/05/26 09:31:41;;;;;;;13.85;4.10;;;26.90;62.40;;;27.57;53.16;102197.47;5195244;28;20046;-82
2023/05/26 09:34:15;;;;;;;10.77;3.47;;;26.30;63.00;;;26.82;55.10;102197.47;5175326;28;20042;-80
2023/05/26 09:36:47;;;;;;;;;;;25.70;64.60;;;26.18;56.01;102190.88;5188956;28;20178;-81
2023/05/26 09:39:20;;;;;;;12.70;3.47;;;25.20;65.00;;;25.47;57.73;102201.09;5185869;28;20448;-82
2023/05/26 09:41:53;;;;;;;11.88;3.85;;;24.60;66.30;;;24.70;58.89;102184.41;5186884;28;20043;-81
2023/05/26 09:44:26;;;;;;;12.60;3.42;;;24.00;66.90;;;24.20;60.64;102189.75;5170220;28;20488;-81
2023/05/26 09:46:58;;;;;;;8.15;3.30;;;23.60;68.50;;;23.98;62.27;102176.41;5168218;28;20050;-81
2023/05/26 09:49:33;;;;;;;12.60;3.60;;;23.30;70.00;;;23.83;62.97;102165.72;5195319;28;20040;-80
2023/05/26 09:52:05;;;;;;;11.82;3.30;;;23.10;71.00;;;23.90;63.15;102171.97;5173616;28;20038;-81
2023/05/26 09:54:37;;;;;;;13.52;3.53;;;23.10;71.70;;;24.10;63.53;102171.09;5176999;28;20022;-81
2023/05/26 09:57:11;;;;;;;11.13;3.15;;;23.20;72.20;;;24.32;62.76;102171.06;5163196;28;20046;-83
2023/05/26 09:59:46;;;;;;;11.70;3.55;;;23.40;71.90;;;24.23;63.22;102171.09;5156067;28;20076;-79
2023/05/26 10:02:21;;;;;;;12.65;3.60;;;23.30;71.90;;;24.14;62.57;102172.00;5194037;28;20034;-81
2023/05/26 10:04:54;;;;;;;11.05;3.22;;;23.30;71.70;;;24.03;63.21;102171.97;5175276;28;20073;-81
2023/05/26 10:07:28;;;;;;;9.30;2.95;;;23.20;72.10;;;24.04;63.63;102165.75;5161707;28;20050;-82
2023/05/26 10:10:02;;;;;;;;;;;23.20;72.50;;;23.89;63.42;102168.41;5170351;28;20515;-81
2023/05/26 10:12:36;;;;;;;;;;;23.20;72.20;;;23.86;63.51;102165.72;5184596;28;19963;-81
2023/05/26 10:15:10;;;;;;;12.10;3.40;;;23.10;72.50;;;23.63;63.63;102165.69;5193151;28;20011;-81
2023/05/26 10:17:44;;;;;;;9.57;3.45;;;23.00;72.40;;;23.22;64.28;102163.75;5189000;28;20416;-81
2023/05/26 10:20:16;;;;;;;13.07;3.65;;;22.70;72.50;;;23.07;65.69;102160.13;5171358;28;20050;-81
2023/05/26 10:23:01;;;;;;;9.57;3.15;;;22.50;73.70;;;23.06;66.36;102166.31;5174971;28;20058;-83
2023/05/26 10:25:55;;;;;;;10.05;3.75;;;22.40;74.50;;;23.37;67.45;102154.06;5164296;28;20050;-81
2023/05/26 10:28:42;;;;;;;13.15;3.63;;;22.60;76.20;;;23.33;66.22;102155.81;5183205;28;20044;-81
2023/05/26 10:31:29;;;;;;;11.27;3.25;;;22.60;75.50;;;23.22;66.00;102153.13;5174009;28;20547;-81
2023/05/26 10:34:02;;;;;;;13.35;3.83;;;22.60;75.20;;;23.10;66.25;102154.84;5168629;28;20053;-81
2023/05/26 10:36:34;;;;;;;12.65;3.38;;;22.50;75.10;;;23.12;68.13;102147.75;5188370;28;20541;-81